createdAt,value
2019-05-26T00:00:02.764Z,10.80
2019-05-26T00:02:31.266Z,10.73
2019-05-26T00:04:59.900Z,11.27
2019-05-26T00:07:30.871Z,9.50
2019-05-26T00:09:58.519Z,10.73
2019-05-26T00:12:27.016Z,11.00
2019-05-26T00:14:55.489Z,10.80
2019-05-26T00:17:23.973Z,12.27
2019-05-26T00:19:52.453Z,12.03
2019-05-26T00:22:20.973Z,12.95
2019-05-26T00:24:49.511Z,12.13
2019-05-26T00:27:18.017Z,11.12
2019-05-26T00:29:46.478Z,11.77
2019-05-26T00:32:14.973Z,12.80
2019-05-26T00:34:43.454Z,12.93
2019-05-26T00:37:11.954Z,12.50
2019-05-26T00:39:40.418Z,12.93
2019-05-26T00:42:08.921Z,11.50
2019-05-26T00:44:37.380Z,11.80
2019-05-26T00:47:05.950Z,11.87
2019-05-26T00:49:34.862Z,10.80
2019-05-26T00:52:03.498Z,10.10
2019-05-26T00:54:32.045Z,10.00
2019-05-26T00:57:00.542Z,10.55
2019-05-26T00:59:29.013Z,10.40
2019-05-26T01:01:57.562Z,11.53
2019-05-26T01:04:26.132Z,11.27
2019-05-26T01:06:55.026Z,12.07
2019-05-26T01:09:23.602Z,11.30
2019-05-26T01:11:52.137Z,12.43
2019-05-26T01:14:20.817Z,10.80
2019-05-26T01:16:49.291Z,11.13
2019-05-26T01:19:17.777Z,10.27
2019-05-26T01:21:46.248Z,10.73
2019-05-26T01:24:14.791Z,10.40
2019-05-26T01:26:43.325Z,9.83
2019-05-26T01:29:11.889Z,11.10
2019-05-26T01:31:40.364Z,12.10
2019-05-26T01:34:08.863Z,12.10
2019-05-26T01:36:37.484Z,11.43
2019-05-26T01:39:07.514Z,12.20
2019-05-26T01:41:36.061Z,12.67
2019-05-26T01:44:05.021Z,12.03
2019-05-26T01:46:33.730Z,12.47
2019-05-26T01:49:02.221Z,13.10
2019-05-26T01:51:30.690Z,13.80
2019-05-26T01:53:59.199Z,13.07
2019-05-26T01:56:27.736Z,13.30
2019-05-26T01:58:56.320Z,14.27
2019-05-26T02:01:24.804Z,15.00
2019-05-26T02:03:53.280Z,14.80
2019-05-26T02:06:21.754Z,15.70
2019-05-26T02:08:50.322Z,15.70
2019-05-26T02:11:18.791Z,15.63
2019-05-26T02:13:47.297Z,15.13
2019-05-26T02:16:15.764Z,14.83
2019-05-26T02:18:44.259Z,14.43
2019-05-26T02:21:14.791Z,15.10
2019-05-26T02:23:42.873Z,15.00
2019-05-26T02:26:11.341Z,15.00
2019-05-26T02:28:39.845Z,14.47
2019-05-26T02:31:08.317Z,15.60
2019-05-26T02:33:36.809Z,14.30
2019-05-26T02:36:05.345Z,15.73
2019-05-26T02:38:33.809Z,14.00
2019-05-26T02:41:02.309Z,15.60
2019-05-26T02:43:30.848Z,16.03
2019-05-26T02:45:59.350Z,15.73
2019-05-26T02:48:27.815Z,16.50
2019-05-26T02:50:56.304Z,15.50
2019-05-26T02:53:24.926Z,16.00
2019-05-26T02:55:53.370Z,16.17
2019-05-26T02:58:21.844Z,15.63
2019-05-26T03:00:50.352Z,16.00
2019-05-26T03:03:18.818Z,18.00
2019-05-26T03:05:47.401Z,15.83
2019-05-26T03:08:16.411Z,16.57
2019-05-26T03:10:44.993Z,16.50
2019-05-26T03:13:15.412Z,14.33
2019-05-26T03:15:45.922Z,15.30
2019-05-26T03:18:14.827Z,14.90
2019-05-26T03:20:43.469Z,14.17
2019-05-26T03:23:12.006Z,15.80
2019-05-26T03:25:41.350Z,14.67
2019-05-26T03:28:09.882Z,16.03
2019-05-26T03:30:38.473Z,16.63
2019-05-26T03:33:07.008Z,16.00
2019-05-26T03:35:35.498Z,17.43
2019-05-26T03:38:04.094Z,14.83
2019-05-26T03:40:32.587Z,16.70
2019-05-26T03:43:01.054Z,16.10
2019-05-26T03:45:35.408Z,15.93
2019-05-26T03:48:03.938Z,17.27
2019-05-26T03:50:32.438Z,16.23
2019-05-26T03:53:00.903Z,17.30
2019-05-26T03:55:29.412Z,15.83
2019-05-26T03:57:57.895Z,16.35
2019-05-26T04:00:26.471Z,17.10
2019-05-26T04:02:54.965Z,16.62
2019-05-26T04:05:23.444Z,16.00
2019-05-26T04:07:51.908Z,16.20
2019-05-26T04:10:20.479Z,16.80
2019-05-26T04:12:48.953Z,17.13
2019-05-26T04:15:17.431Z,15.78
2019-05-26T04:17:45.926Z,15.60
2019-05-26T04:20:14.476Z,16.00
2019-05-26T04:22:42.991Z,15.27
2019-05-26T04:25:11.611Z,16.30
2019-05-26T04:27:40.381Z,15.40
2019-05-26T04:30:08.931Z,15.75
2019-05-26T04:32:37.435Z,15.93
2019-05-26T04:35:07.448Z,16.20
2019-05-26T04:37:35.968Z,16.27
2019-05-26T04:40:25.001Z,16.12
2019-05-26T04:42:37.803Z,17.00
2019-05-26T04:45:07.122Z,14.90
2019-05-26T04:47:35.598Z,15.73
2019-05-26T04:50:05.229Z,17.20
2019-05-26T04:52:33.712Z,15.33
2019-05-26T04:55:02.211Z,16.85
2019-05-26T04:57:30.716Z,15.20
2019-05-26T04:59:59.189Z,15.23
2019-05-26T05:02:27.672Z,15.63
2019-05-26T05:04:56.145Z,16.00
2019-05-26T05:07:28.256Z,16.30
2019-05-26T05:09:54.754Z,14.90
2019-05-26T05:12:23.247Z,16.30
2019-05-26T05:14:51.738Z,15.58
2019-05-26T05:17:20.307Z,16.10
2019-05-26T05:19:48.844Z,15.17
2019-05-26T05:22:17.371Z,14.73
2019-05-26T05:24:45.818Z,15.90
2019-05-26T05:27:14.324Z,16.90
2019-05-26T05:29:42.941Z,13.70
2019-05-26T05:32:11.442Z,15.97
2019-05-26T05:34:39.982Z,15.63
2019-05-26T05:37:08.493Z,14.47
2019-05-26T05:39:36.901Z,15.00
2019-05-26T05:42:05.469Z,13.00
2019-05-26T05:44:33.938Z,13.73
2019-05-26T05:47:02.433Z,13.70
2019-05-26T05:49:30.909Z,13.57
2019-05-26T05:51:59.398Z,13.40
2019-05-26T05:54:27.873Z,13.70
2019-05-26T05:56:56.345Z,13.37
2019-05-26T05:59:24.847Z,12.60
2019-05-26T06:01:53.318Z,12.50
2019-05-26T06:04:21.817Z,17.07
2019-05-26T06:06:50.292Z,18.63
2019-05-26T06:09:18.790Z,21.37
2019-05-26T06:11:47.255Z,15.37
2019-05-26T06:14:15.757Z,11.17
2019-05-26T06:16:44.226Z,12.23
2019-05-26T06:19:12.722Z,11.13
2019-05-26T06:21:41.197Z,9.10
2019-05-26T06:24:09.685Z,9.00
2019-05-26T06:26:38.150Z,8.27
2019-05-26T06:29:06.650Z,8.90
2019-05-26T06:31:35.143Z,7.90
2019-05-26T06:34:03.765Z,7.47
2019-05-26T06:36:32.221Z,7.00
2019-05-26T06:39:00.710Z,6.90
2019-05-26T06:41:33.872Z,6.93
2019-05-26T06:43:59.310Z,7.97
2019-05-26T06:46:27.775Z,7.03
2019-05-26T06:48:56.259Z,7.77
2019-05-26T06:51:24.714Z,8.73
2019-05-26T06:53:53.213Z,7.10
2019-05-26T06:56:21.692Z,7.20
2019-05-26T06:58:50.179Z,6.33
2019-05-26T07:01:18.641Z,5.87
2019-05-26T07:03:47.125Z,5.70
2019-05-26T07:06:15.590Z,6.03
2019-05-26T07:08:44.094Z,5.70
2019-05-26T07:11:12.584Z,5.43
2019-05-26T07:13:41.073Z,5.43
2019-05-26T07:16:09.537Z,5.93
2019-05-26T07:18:38.036Z,7.80
2019-05-26T07:21:06.502Z,8.90
2019-05-26T07:23:34.997Z,7.13
2019-05-26T07:26:03.528Z,7.47
2019-05-26T07:28:32.015Z,6.63
2019-05-26T07:31:00.488Z,6.60
2019-05-26T07:33:29.007Z,5.83
2019-05-26T07:35:57.492Z,6.33
2019-05-26T07:38:25.967Z,5.80
2019-05-26T07:40:54.449Z,5.50
2019-05-26T07:43:22.917Z,7.43
2019-05-26T07:45:51.411Z,6.63
2019-05-26T07:48:19.868Z,6.40
2019-05-26T07:50:48.351Z,5.80
2019-05-26T07:53:16.810Z,5.27
2019-05-26T07:55:45.308Z,6.73
2019-05-26T07:58:13.778Z,7.17
2019-05-26T08:00:42.296Z,5.50
2019-05-26T08:03:10.741Z,5.27
2019-05-26T08:05:39.232Z,5.43
2019-05-26T08:08:12.800Z,5.50
2019-05-26T08:10:37.904Z,5.27
2019-05-26T08:13:06.369Z,5.33
2019-05-26T08:15:34.856Z,4.50
2019-05-26T08:18:03.387Z,7.00
2019-05-26T08:20:31.888Z,8.43
2019-05-26T08:23:00.342Z,6.47
2019-05-26T08:25:28.837Z,6.10
2019-05-26T08:27:57.293Z,5.60
2019-05-26T08:30:25.855Z,4.27
2019-05-26T08:32:54.318Z,4.63
2019-05-26T08:35:22.848Z,4.90
2019-05-26T08:37:51.276Z,6.73
2019-05-26T08:40:19.758Z,6.23
2019-05-26T08:42:48.957Z,6.00
2019-05-26T08:45:21.248Z,5.90
2019-05-26T08:47:48.057Z,5.03
2019-05-26T08:50:16.917Z,5.37
2019-05-26T08:52:45.495Z,5.60
2019-05-26T08:55:14.240Z,6.53
2019-05-26T08:57:42.710Z,4.00
2019-05-26T09:00:11.443Z,6.40
2019-05-26T09:02:39.900Z,7.90
2019-05-26T09:05:08.568Z,6.03
2019-05-26T09:07:37.097Z,5.37
2019-05-26T09:10:06.237Z,4.97
2019-05-26T09:12:34.693Z,6.10
2019-05-26T09:15:03.361Z,5.20
2019-05-26T09:17:31.818Z,6.20
2019-05-26T09:20:00.312Z,5.67
2019-05-26T09:22:28.847Z,5.20
2019-05-26T09:24:57.308Z,5.00
2019-05-26T09:27:25.798Z,5.07
2019-05-26T09:29:54.278Z,5.37
2019-05-26T09:32:22.772Z,4.80
2019-05-26T09:34:51.235Z,5.70
2019-05-26T09:37:19.736Z,4.77
2019-05-26T09:39:48.199Z,4.20
2019-05-26T09:42:16.716Z,4.70
2019-05-26T09:44:45.171Z,3.90
2019-05-26T09:47:13.663Z,5.30
2019-05-26T09:49:42.118Z,5.17
2019-05-26T09:52:10.604Z,5.50
2019-05-26T09:54:39.208Z,4.13
2019-05-26T09:57:07.714Z,3.70
2019-05-26T09:59:36.176Z,5.37
2019-05-26T10:02:05.409Z,4.80
2019-05-26T10:04:33.869Z,4.93
2019-05-26T10:07:02.473Z,5.13
2019-05-26T10:09:31.015Z,5.83
2019-05-26T10:11:59.664Z,5.03
2019-05-26T10:14:28.125Z,5.20
2019-05-26T10:16:56.615Z,4.83
2019-05-26T10:19:25.142Z,5.23
2019-05-26T10:24:32.947Z,4.70
2019-05-26T10:27:01.514Z,4.20
2019-05-26T10:29:29.981Z,4.10
2019-05-26T10:31:58.468Z,4.80
2019-05-26T10:34:27.008Z,4.43
2019-05-26T10:36:55.434Z,3.77
2019-05-26T10:39:23.894Z,4.47
2019-05-26T10:41:52.385Z,4.33
2019-05-26T10:44:20.851Z,3.87
2019-05-26T10:46:49.338Z,3.97
2019-05-26T10:49:17.830Z,4.37
2019-05-26T10:51:46.290Z,3.60
2019-05-26T10:54:14.751Z,4.70
2019-05-26T10:56:43.249Z,3.30
2019-05-26T10:59:11.715Z,3.17
2019-05-26T11:01:40.197Z,4.07
2019-05-26T11:04:08.726Z,3.10
2019-05-26T11:06:37.156Z,3.33
2019-05-26T11:09:07.256Z,3.03
2019-05-26T11:11:36.178Z,3.20
2019-05-26T11:14:05.489Z,3.30
2019-05-26T11:16:33.949Z,2.90
2019-05-26T11:19:02.507Z,2.83
2019-05-26T11:21:30.965Z,2.10
2019-05-26T11:23:59.460Z,2.30
2019-05-26T11:26:27.921Z,2.20
2019-05-26T11:28:56.419Z,2.70
2019-05-26T11:31:24.892Z,2.47
2019-05-26T11:33:53.389Z,2.73
2019-05-26T11:36:21.848Z,2.10
2019-05-26T11:38:50.341Z,2.67
2019-05-26T11:41:18.803Z,2.60
2019-05-26T11:43:47.292Z,2.73
2019-05-26T11:46:17.159Z,2.50
2019-05-26T11:48:45.922Z,3.43
2019-05-26T11:51:14.387Z,2.90
2019-05-26T11:53:42.881Z,2.17
2019-05-26T11:56:11.390Z,2.50
2019-05-26T11:58:39.950Z,2.20
2019-05-26T12:01:08.414Z,2.00
2019-05-26T12:03:36.910Z,2.00
2019-05-26T12:06:05.384Z,2.20
2019-05-26T12:08:33.874Z,1.73
2019-05-26T12:11:02.374Z,1.83
2019-05-26T12:13:30.892Z,2.50
2019-05-26T12:15:59.351Z,1.93
2019-05-26T12:18:27.848Z,1.57
2019-05-26T12:20:56.314Z,1.30
2019-05-26T12:23:24.815Z,1.87
2019-05-26T12:25:53.373Z,2.03
2019-05-26T12:28:21.864Z,2.20
2019-05-26T12:30:50.336Z,2.20
2019-05-26T12:33:18.822Z,2.60
2019-05-26T12:35:47.294Z,2.50
2019-05-26T12:38:16.051Z,2.17
2019-05-26T12:40:44.655Z,2.23
2019-05-26T12:43:13.216Z,2.17
2019-05-26T12:45:41.677Z,1.70
2019-05-26T12:48:10.186Z,1.50
2019-05-26T12:50:39.084Z,2.50
2019-05-26T12:53:07.744Z,1.30
2019-05-26T12:55:36.206Z,1.97
2019-05-26T12:58:05.163Z,1.83
2019-05-26T13:00:47.402Z,1.50
2019-05-26T13:03:04.137Z,1.80
2019-05-26T13:05:32.590Z,2.20
2019-05-26T13:08:01.047Z,1.70
2019-05-26T13:10:29.549Z,2.73
2019-05-26T13:12:58.007Z,1.53
2019-05-26T13:15:26.568Z,2.20
2019-05-26T13:17:55.091Z,1.90
2019-05-26T13:20:23.922Z,2.13
2019-05-26T13:22:52.393Z,2.50
2019-05-26T13:25:21.053Z,2.10
2019-05-26T13:27:49.516Z,2.20
2019-05-26T13:30:20.438Z,2.00
2019-05-26T13:32:48.912Z,1.97
2019-05-26T13:35:17.732Z,2.80
2019-05-26T13:37:46.196Z,2.20
2019-05-26T13:40:16.229Z,2.17
2019-05-26T13:42:44.694Z,3.10
2019-05-26T13:45:22.496Z,2.67
2019-05-26T13:47:44.056Z,2.50
2019-05-26T13:50:13.192Z,2.50
2019-05-26T13:52:41.650Z,2.13
2019-05-26T13:55:10.476Z,2.27
2019-05-26T13:57:38.942Z,2.30
2019-05-26T14:00:09.382Z,2.80
2019-05-26T14:02:37.894Z,2.20
2019-05-26T14:05:08.227Z,2.20
2019-05-26T14:07:36.758Z,2.33
2019-05-26T14:10:06.593Z,1.93
2019-05-26T14:12:35.053Z,2.07
2019-05-26T14:15:05.381Z,2.37
2019-05-26T14:17:34.080Z,2.73
2019-05-26T14:20:03.009Z,2.90
2019-05-26T14:22:31.466Z,2.50
2019-05-26T14:25:00.025Z,1.83
2019-05-26T14:27:28.487Z,2.50
2019-05-26T14:29:56.973Z,3.50
2019-05-26T14:32:25.440Z,2.23
2019-05-26T14:34:53.932Z,2.23
2019-05-26T14:37:22.389Z,2.07
2019-05-26T14:39:50.881Z,2.20
2019-05-26T14:42:19.355Z,2.17
2019-05-26T14:44:47.829Z,2.20
2019-05-26T14:47:16.295Z,3.17
2019-05-26T14:49:44.790Z,2.63
2019-05-26T14:52:13.619Z,2.40
2019-05-26T14:54:42.136Z,2.57
2019-05-26T14:57:10.573Z,2.57
2019-05-26T14:59:39.064Z,2.40
2019-05-26T15:02:07.523Z,2.10
2019-05-26T15:04:36.013Z,2.40
2019-05-26T15:07:04.542Z,2.50
2019-05-26T15:09:33.122Z,2.50
2019-05-26T15:12:01.634Z,2.80
2019-05-26T15:14:30.105Z,2.33
2019-05-26T15:16:58.641Z,2.33
2019-05-26T15:19:27.169Z,2.57
2019-05-26T15:21:55.666Z,2.20
2019-05-26T15:24:24.118Z,2.30
2019-05-26T15:26:52.613Z,1.70
2019-05-26T15:29:21.075Z,2.60
2019-05-26T15:31:49.582Z,2.67
2019-05-26T15:34:18.030Z,2.33
2019-05-26T15:36:46.523Z,2.17
2019-05-26T15:39:15.061Z,1.90
2019-05-26T15:41:43.481Z,3.30
2019-05-26T15:44:11.952Z,2.93
2019-05-26T15:46:40.437Z,4.87
2019-05-26T15:49:08.897Z,2.80
2019-05-26T15:51:37.395Z,4.67
2019-05-26T15:54:05.930Z,4.20
2019-05-26T15:56:34.488Z,2.20
2019-05-26T15:59:02.961Z,2.53
2019-05-26T16:01:31.625Z,1.90
2019-05-26T16:04:00.085Z,1.80
2019-05-26T16:06:28.598Z,2.10
2019-05-26T16:08:57.042Z,1.70
2019-05-26T16:11:25.530Z,1.83
2019-05-26T16:13:54.006Z,2.13
2019-05-26T16:16:22.495Z,1.77
2019-05-26T16:18:50.957Z,1.70
2019-05-26T16:21:27.986Z,1.40
2019-05-26T16:23:49.550Z,1.60
2019-05-26T16:26:18.038Z,1.63
2019-05-26T16:28:46.501Z,1.30
2019-05-26T16:31:14.997Z,1.40
2019-05-26T16:33:43.459Z,1.60
2019-05-26T16:36:12.003Z,1.70
2019-05-26T16:38:40.474Z,1.40
2019-05-26T16:41:08.980Z,1.60
2019-05-26T16:43:37.489Z,1.80
2019-05-26T16:46:06.028Z,1.80
2019-05-26T16:48:34.432Z,1.47
2019-05-26T16:51:02.941Z,1.80
2019-05-26T16:53:31.391Z,1.57
2019-05-26T16:55:59.881Z,1.40
2019-05-26T16:58:28.419Z,1.40
2019-05-26T17:00:56.876Z,1.33
2019-05-26T17:03:25.433Z,1.43
2019-05-26T17:06:07.093Z,1.57
2019-05-26T17:08:24.035Z,1.57
2019-05-26T17:10:52.504Z,1.77
2019-05-26T17:13:21.002Z,1.63
2019-05-26T17:15:49.465Z,1.50
2019-05-26T17:18:18.037Z,1.80
2019-05-26T17:20:46.484Z,2.10
2019-05-26T17:23:14.974Z,1.30
2019-05-26T17:25:43.429Z,1.97
2019-05-26T17:28:11.923Z,1.73
2019-05-26T17:30:40.449Z,1.70
2019-05-26T17:33:08.964Z,1.90
2019-05-26T17:35:37.401Z,1.40
2019-05-26T17:38:06.017Z,1.70
2019-05-26T17:40:34.471Z,2.07
2019-05-26T17:43:02.964Z,1.70
2019-05-26T17:45:31.423Z,1.70
2019-05-26T17:47:59.985Z,2.00
2019-05-26T17:50:28.444Z,1.60
2019-05-26T17:52:56.934Z,2.13
2019-05-26T17:55:25.491Z,1.80
2019-05-26T17:57:53.970Z,1.90
2019-05-26T18:00:22.568Z,1.90
2019-05-26T18:02:51.261Z,1.90
2019-05-26T18:05:19.787Z,2.93
2019-05-26T18:07:48.275Z,2.20
2019-05-26T18:10:17.579Z,2.40
2019-05-26T18:12:46.362Z,2.17
2019-05-26T18:15:14.882Z,2.13
2019-05-26T18:17:47.364Z,2.37
2019-05-26T18:20:14.216Z,1.90
2019-05-26T18:22:42.930Z,2.33
2019-05-26T18:25:11.664Z,1.93
2019-05-26T18:27:40.153Z,2.17
2019-05-26T18:30:10.352Z,1.90
2019-05-26T18:32:38.908Z,2.07
2019-05-26T18:35:07.615Z,1.70
2019-05-26T18:37:36.180Z,1.57
2019-05-26T18:40:06.461Z,1.65
2019-05-26T18:42:34.957Z,1.93
2019-05-26T18:45:04.763Z,1.20
2019-05-26T18:47:33.265Z,1.30
2019-05-26T18:50:01.748Z,1.40
2019-05-26T18:52:30.186Z,1.40
2019-05-26T18:54:58.677Z,1.70
2019-05-26T18:57:27.141Z,1.40
2019-05-26T18:59:55.710Z,1.47
2019-05-26T19:02:24.164Z,1.85
2019-05-26T19:04:52.650Z,1.90
2019-05-26T19:07:21.108Z,1.80
2019-05-26T19:09:49.597Z,1.90
2019-05-26T19:12:18.310Z,1.67
2019-05-26T19:14:46.842Z,1.87
2019-05-26T19:17:15.636Z,2.00
2019-05-26T19:19:44.133Z,1.97
2019-05-26T19:22:12.597Z,2.33
2019-05-26T19:24:41.082Z,2.40
2019-05-26T19:27:09.718Z,1.93
2019-05-26T19:29:38.225Z,1.90
2019-05-26T19:32:06.730Z,2.07
2019-05-26T19:34:35.223Z,2.37
2019-05-26T19:37:03.684Z,1.87
2019-05-26T19:39:32.178Z,2.33
2019-05-26T19:42:00.709Z,2.23
2019-05-26T19:44:29.209Z,2.20
2019-05-26T19:46:57.682Z,2.10
2019-05-26T19:49:26.181Z,2.27
2019-05-26T19:51:54.638Z,2.40
2019-05-26T19:54:23.134Z,2.00
2019-05-26T19:56:51.594Z,1.90
2019-05-26T19:59:20.086Z,1.93
2019-05-26T20:01:48.549Z,2.17
2019-05-26T20:04:17.090Z,2.30
2019-05-26T20:06:45.499Z,2.30
2019-05-26T20:09:13.981Z,2.33
2019-05-26T20:11:42.471Z,1.90
2019-05-26T20:14:10.969Z,2.20
2019-05-26T20:16:39.438Z,2.07
2019-05-26T20:19:08.407Z,2.33
2019-05-26T20:21:36.873Z,2.00
2019-05-26T20:24:05.853Z,2.50
2019-05-26T20:26:34.304Z,2.53
2019-05-26T20:29:02.875Z,2.63
2019-05-26T20:31:31.423Z,2.63
2019-05-26T20:33:59.984Z,2.73
2019-05-26T20:36:28.445Z,2.07
2019-05-26T20:38:56.930Z,2.40
2019-05-26T20:41:25.397Z,2.30
2019-05-26T20:43:53.852Z,2.60
2019-05-26T20:46:22.418Z,2.10
2019-05-26T20:48:50.875Z,2.40
2019-05-26T20:51:19.376Z,2.30
2019-05-26T20:53:47.910Z,2.37
2019-05-26T20:56:16.398Z,2.20
2019-05-26T20:58:44.864Z,2.20
2019-05-26T21:01:13.344Z,1.93
2019-05-26T21:03:41.814Z,2.23
2019-05-26T21:06:10.299Z,2.50
2019-05-26T21:08:38.761Z,2.00
2019-05-26T21:11:07.254Z,2.63
2019-05-26T21:13:35.719Z,2.90
2019-05-26T21:16:04.252Z,2.80
2019-05-26T21:18:32.705Z,2.60
2019-05-26T21:21:01.204Z,2.40
2019-05-26T21:23:29.669Z,3.13
2019-05-26T21:25:58.157Z,2.93
2019-05-26T21:28:26.751Z,3.10
2019-05-26T21:30:55.326Z,2.57
2019-05-26T21:33:23.801Z,3.03
2019-05-26T21:35:52.298Z,2.50
2019-05-26T21:38:20.809Z,2.43
2019-05-26T21:40:49.315Z,2.60
2019-05-26T21:43:17.776Z,2.83
2019-05-26T21:45:46.280Z,2.67
2019-05-26T21:48:14.894Z,2.77
2019-05-26T21:50:43.389Z,2.50
2019-05-26T21:53:11.859Z,2.60
2019-05-26T21:55:40.380Z,2.80
2019-05-26T21:58:08.838Z,2.40
2019-05-26T22:00:38.974Z,3.17
2019-05-26T22:03:07.576Z,3.13
2019-05-26T22:05:36.019Z,2.63
2019-05-26T22:08:04.551Z,2.73
2019-05-26T22:10:33.048Z,2.90
2019-05-26T22:13:01.504Z,2.50
2019-05-26T22:15:30.131Z,2.80
2019-05-26T22:17:58.590Z,2.83
2019-05-26T22:20:27.077Z,2.83
2019-05-26T22:22:55.539Z,2.90
2019-05-26T22:25:24.069Z,2.20
2019-05-26T22:27:52.559Z,2.07
2019-05-26T22:30:21.280Z,2.10
2019-05-26T22:32:49.841Z,2.63
2019-05-26T22:35:18.303Z,2.40
2019-05-26T22:37:46.796Z,2.00
2019-05-26T22:40:15.697Z,1.67
2019-05-26T22:42:44.191Z,2.23
2019-05-26T22:45:12.886Z,1.80
2019-05-26T22:47:41.373Z,2.17
2019-05-26T22:50:10.280Z,1.97
2019-05-26T22:52:38.783Z,1.50
2019-05-26T22:55:08.771Z,2.00
2019-05-26T22:57:37.268Z,1.57
2019-05-26T23:00:08.036Z,1.80
2019-05-26T23:02:36.525Z,1.57
2019-05-26T23:05:06.525Z,1.70
2019-05-26T23:07:35.018Z,2.00
2019-05-26T23:10:07.182Z,1.90
2019-05-26T23:12:35.670Z,2.10
2019-05-26T23:15:06.272Z,2.07
2019-05-26T23:17:34.769Z,2.00
2019-05-26T23:20:03.233Z,2.30
2019-05-26T23:22:31.729Z,2.33
2019-05-26T23:25:00.188Z,1.73
2019-05-26T23:27:28.948Z,1.80
2019-05-26T23:29:57.404Z,1.80
2019-05-26T23:32:25.899Z,2.43
2019-05-26T23:34:54.358Z,2.00
2019-05-26T23:37:22.850Z,2.10
2019-05-26T23:39:51.300Z,2.40
2019-05-26T23:42:19.798Z,2.00
2019-05-26T23:44:48.260Z,1.90
2019-05-26T23:47:16.751Z,2.20
2019-05-26T23:49:45.212Z,2.50
2019-05-26T23:52:13.712Z,2.00
2019-05-26T23:54:42.170Z,2.73
2019-05-26T23:57:10.634Z,2.10
2019-05-26T23:59:39.137Z,2.40
